createdAt,value
2019-06-07T00:00:39.209Z,101266.86
2019-06-07T00:03:01.172Z,101261.77
2019-06-07T00:05:28.242Z,101261.72
2019-06-07T00:08:07.152Z,101260.78
2019-06-07T00:10:37.027Z,101265.60
2019-06-07T00:12:56.042Z,101259.08
2019-06-07T00:15:28.803Z,101253.04
2019-06-07T00:17:52.124Z,101250.63
2019-06-07T00:20:23.456Z,101253.53
2019-06-07T00:22:48.496Z,101246.42
2019-06-07T00:25:20.266Z,101241.37
2019-06-07T00:27:44.648Z,101244.14
2019-06-07T00:30:40.096Z,101249.23
2019-06-07T00:32:41.325Z,101255.30
2019-06-07T00:35:09.141Z,101252.81
2019-06-07T00:37:36.486Z,101252.07
2019-06-07T00:40:14.225Z,101248.23
2019-06-07T00:42:33.545Z,101253.44
2019-06-07T00:45:01.779Z,101256.05
2019-06-07T00:47:28.877Z,101266.14
2019-06-07T00:49:55.919Z,101265.48
2019-06-07T00:53:11.626Z,101265.19
2019-06-07T00:54:51.980Z,101269.14
2019-06-07T00:57:19.869Z,101269.03
2019-06-07T00:59:48.186Z,101264.42
2019-06-07T01:02:16.691Z,101266.70
2019-06-07T01:04:44.254Z,101264.13
2019-06-07T01:07:11.325Z,101268.84
2019-06-07T01:09:41.174Z,101272.51
2019-06-07T01:12:08.273Z,101272.22
2019-06-07T01:14:35.353Z,101274.24
2019-06-07T01:17:27.566Z,101269.92
2019-06-07T01:19:42.717Z,101271.27
2019-06-07T01:22:09.785Z,101276.16
2019-06-07T01:24:36.863Z,101268.58
2019-06-07T01:27:03.979Z,101263.69
2019-06-07T01:29:31.341Z,101262.91
2019-06-07T01:31:58.528Z,101261.30
2019-06-07T01:34:26.903Z,101261.58
2019-06-07T01:36:54.232Z,101271.59
2019-06-07T01:39:24.078Z,101273.13
2019-06-07T01:41:50.283Z,101270.25
2019-06-07T01:44:18.563Z,101271.67
2019-06-07T01:46:46.339Z,101262.94
2019-06-07T01:49:13.403Z,101258.73
2019-06-07T01:51:40.492Z,101257.95
2019-06-07T01:54:49.268Z,101257.58
2019-06-07T01:56:36.578Z,101248.92
2019-06-07T01:59:03.650Z,101249.49
2019-06-07T02:01:35.375Z,101243.34
2019-06-07T02:04:00.850Z,101241.99
2019-06-07T02:06:32.035Z,101239.98
2019-06-07T02:08:56.936Z,101238.38
2019-06-07T02:11:25.988Z,101234.42
2019-06-07T02:13:52.975Z,101228.27
2019-06-07T02:16:21.702Z,101232.41
2019-06-07T02:19:01.040Z,101229.91
2019-06-07T02:21:17.948Z,101232.30
2019-06-07T02:23:45.027Z,101229.14
2019-06-07T02:26:12.107Z,101231.07
2019-06-07T02:28:45.675Z,101226.45
2019-06-07T02:31:08.166Z,101228.88
2019-06-07T02:33:40.355Z,101223.58
2019-06-07T02:36:04.224Z,101219.92
2019-06-07T02:38:37.052Z,101218.80
2019-06-07T02:41:00.372Z,101214.28
2019-06-07T02:43:32.449Z,101214.84
2019-06-07T02:45:56.511Z,101210.82
2019-06-07T02:48:26.489Z,101214.66
2019-06-07T02:50:52.673Z,101214.58
2019-06-07T02:53:19.776Z,101218.39
2019-06-07T02:56:34.125Z,101213.31
2019-06-07T02:58:15.943Z,101214.95
2019-06-07T03:01:06.158Z,101213.72
2019-06-07T03:03:16.200Z,101212.55
2019-06-07T03:05:44.172Z,101221.77
2019-06-07T03:08:13.077Z,101227.33
2019-06-07T03:10:42.979Z,101221.76
2019-06-07T03:13:11.375Z,101224.93
2019-06-07T03:15:49.296Z,101226.94
2019-06-07T03:18:36.214Z,101226.19
2019-06-07T03:21:05.668Z,101229.72
2019-06-07T03:23:34.393Z,101237.11
2019-06-07T03:26:03.639Z,101231.16
2019-06-07T03:28:35.583Z,101222.53
2019-06-07T03:31:02.623Z,101225.02
2019-06-07T03:33:32.392Z,101229.06
2019-06-07T03:35:58.323Z,101225.28
2019-06-07T03:38:27.567Z,101220.88
2019-06-07T03:40:54.373Z,101220.88
2019-06-07T03:43:21.491Z,101217.82
2019-06-07T03:45:48.588Z,101209.56
2019-06-07T03:48:15.671Z,101206.07
2019-06-07T03:50:42.748Z,101209.53
2019-06-07T03:53:09.826Z,101196.27
2019-06-07T03:55:39.072Z,101202.59
2019-06-07T04:00:37.367Z,101211.38
2019-06-07T04:03:03.872Z,101215.02
2019-06-07T04:05:32.791Z,101221.70
2019-06-07T04:08:00.292Z,101221.42
2019-06-07T04:10:49.556Z,101212.66
2019-06-07T04:12:56.360Z,101213.69
2019-06-07T04:15:23.436Z,101215.56
2019-06-07T04:18:01.912Z,101210.88
2019-06-07T04:20:19.472Z,101210.64
2019-06-07T04:22:46.546Z,101216.13
2019-06-07T04:25:13.920Z,101211.03
2019-06-07T04:27:41.333Z,101213.52
2019-06-07T04:30:09.286Z,101216.37
2019-06-07T04:32:39.467Z,101213.84
2019-06-07T04:35:05.492Z,101209.76
2019-06-07T04:37:33.509Z,101205.88
2019-06-07T04:40:02.255Z,101204.33
2019-06-07T04:42:34.556Z,101207.78
2019-06-07T04:45:00.482Z,101210.27
2019-06-07T04:47:29.679Z,101211.28
2019-06-07T04:49:59.613Z,101212.42
2019-06-07T04:52:29.932Z,101221.14
2019-06-07T04:54:57.517Z,101210.01
2019-06-07T04:57:24.584Z,101210.74
2019-06-07T05:00:11.854Z,101210.87
2019-06-07T05:02:20.647Z,101220.17
2019-06-07T05:04:47.768Z,101217.97
2019-06-07T05:07:14.888Z,101217.88
2019-06-07T05:09:43.356Z,101215.92
2019-06-07T05:12:10.583Z,101211.67
2019-06-07T05:14:39.972Z,101209.98
2019-06-07T05:17:06.648Z,101207.48
2019-06-07T05:19:38.101Z,101211.67
2019-06-07T05:22:05.040Z,101207.94
2019-06-07T05:24:37.688Z,101205.67
2019-06-07T05:27:00.782Z,101200.25
2019-06-07T05:29:27.865Z,101200.58
2019-06-07T05:31:55.348Z,101198.67
2019-06-07T05:34:22.431Z,101211.09
2019-06-07T05:37:10.482Z,101198.64
2019-06-07T05:39:18.467Z,101203.20
2019-06-07T05:41:45.538Z,101201.04
2019-06-07T05:44:14.936Z,101194.31
2019-06-07T05:46:46.702Z,101196.69
2019-06-07T05:49:10.577Z,101196.83
2019-06-07T05:51:41.569Z,101198.32
2019-06-07T05:54:06.626Z,101202.50
2019-06-07T05:56:35.721Z,101199.31
2019-06-07T05:59:02.707Z,101201.06
2019-06-07T06:01:56.641Z,101198.00
2019-06-07T06:03:58.759Z,101198.55
2019-06-07T06:06:25.819Z,101195.36
2019-06-07T06:09:11.012Z,101188.55
2019-06-07T06:11:21.903Z,101187.99
2019-06-07T06:14:05.654Z,101190.33
2019-06-07T06:16:17.965Z,101191.31
2019-06-07T06:18:47.114Z,101192.70
2019-06-07T06:21:19.356Z,101187.69
2019-06-07T06:23:45.838Z,101191.77
2019-06-07T06:26:12.003Z,101189.92
2019-06-07T06:28:40.112Z,101186.39
2019-06-07T06:31:07.395Z,101180.02
2019-06-07T06:33:35.040Z,101180.17
2019-06-07T06:36:02.349Z,101179.06
2019-06-07T06:38:29.404Z,101181.08
2019-06-07T06:41:14.390Z,101177.62
2019-06-07T06:43:25.484Z,101182.66
2019-06-07T06:45:52.559Z,101182.93
2019-06-07T06:48:19.797Z,101187.97
2019-06-07T06:50:51.842Z,101189.54
2019-06-07T06:53:15.878Z,101186.10
2019-06-07T06:55:43.925Z,101187.56
2019-06-07T06:58:11.817Z,101180.06
2019-06-07T07:01:04.931Z,101177.09
2019-06-07T07:06:24.179Z,101174.80
2019-06-07T07:08:27.664Z,101180.05
2019-06-07T07:10:55.259Z,101175.58
2019-06-07T07:13:22.618Z,101175.91
2019-06-07T07:15:55.208Z,101174.77
2019-06-07T07:18:18.722Z,101174.96
2019-06-07T07:20:47.713Z,101173.83
2019-06-07T07:23:14.788Z,101181.28
2019-06-07T07:25:43.511Z,101179.90
2019-06-07T07:28:10.960Z,101176.28
2019-06-07T07:30:44.776Z,101183.62
2019-06-07T07:33:12.234Z,101187.23
2019-06-07T07:35:39.376Z,101188.77
2019-06-07T07:38:08.272Z,101186.88
2019-06-07T07:40:56.913Z,101183.16
2019-06-07T07:43:04.494Z,101184.48
2019-06-07T07:45:31.571Z,101178.91
2019-06-07T07:48:14.735Z,101181.58
2019-06-07T07:50:27.624Z,101181.50
2019-06-07T07:53:00.113Z,101185.11
2019-06-07T07:55:24.043Z,101178.58
2019-06-07T07:57:56.808Z,101182.41
2019-06-07T08:02:53.156Z,101178.89
2019-06-07T08:05:25.574Z,101168.75
2019-06-07T08:07:53.092Z,101168.75
2019-06-07T08:10:18.575Z,101178.88
2019-06-07T08:13:08.932Z,101169.02
2019-06-07T08:15:14.743Z,101182.41
2019-06-07T08:17:41.867Z,101184.97
2019-06-07T08:20:10.260Z,101195.27
2019-06-07T08:22:37.823Z,101190.49
2019-06-07T08:25:05.455Z,101196.68
2019-06-07T08:27:32.749Z,101196.05
2019-06-07T08:30:26.115Z,101194.97
2019-06-07T08:32:28.930Z,101194.97
2019-06-07T08:35:01.712Z,101188.91
2019-06-07T08:38:13.544Z,101192.52
2019-06-07T08:39:56.769Z,101197.94
2019-06-07T08:42:36.529Z,101191.84
2019-06-07T08:44:56.019Z,101189.61
2019-06-07T08:47:22.426Z,101195.47
2019-06-07T08:49:50.648Z,101188.63
2019-06-07T08:52:18.656Z,101188.97
2019-06-07T08:54:45.951Z,101189.81
2019-06-07T08:57:21.159Z,101192.53
2019-06-07T08:59:42.031Z,101197.00
2019-06-07T09:02:22.959Z,101195.38
2019-06-07T09:04:38.107Z,101206.51
2019-06-07T09:07:19.001Z,101200.58
2019-06-07T09:09:34.195Z,101197.18
2019-06-07T09:12:08.169Z,101195.34
2019-06-07T09:14:32.087Z,101192.20
2019-06-07T09:17:04.427Z,101194.66
2019-06-07T09:19:28.266Z,101196.41
2019-06-07T09:22:01.551Z,101197.61
2019-06-07T09:24:26.122Z,101196.41
2019-06-07T09:26:53.387Z,101203.16
2019-06-07T09:29:21.073Z,101205.27
2019-06-07T09:31:53.385Z,101204.67
2019-06-07T09:34:18.318Z,101211.20
2019-06-07T09:36:46.601Z,101210.61
2019-06-07T09:39:13.722Z,101209.96
2019-06-07T09:41:49.329Z,101209.98
2019-06-07T09:44:21.462Z,101204.59
2019-06-07T09:46:38.735Z,101197.97
2019-06-07T09:49:32.240Z,101200.69
2019-06-07T09:51:34.778Z,101190.28
2019-06-07T09:54:06.898Z,101195.75
2019-06-07T09:56:30.853Z,101196.64
2019-06-07T09:59:00.340Z,101199.34
2019-06-07T10:01:26.895Z,101199.37
2019-06-07T10:03:54.044Z,101195.09
2019-06-07T10:06:21.931Z,101206.63
2019-06-07T10:11:17.984Z,101213.42
2019-06-07T10:13:45.055Z,101208.66
2019-06-07T10:16:12.119Z,101209.52
2019-06-07T10:18:39.233Z,101205.05
2019-06-07T10:21:07.813Z,101210.84
2019-06-07T10:23:35.288Z,101204.52
2019-06-07T10:26:03.958Z,101207.27
2019-06-07T10:28:31.124Z,101204.72
2019-06-07T10:30:58.197Z,101209.00
2019-06-07T10:33:25.291Z,101205.45
2019-06-07T10:35:52.404Z,101209.21
2019-06-07T10:38:19.481Z,101210.73
2019-06-07T10:40:46.559Z,101215.86
2019-06-07T10:43:14.599Z,101210.70
2019-06-07T10:45:41.858Z,101204.23
2019-06-07T10:48:09.946Z,101203.72
2019-06-07T10:50:37.248Z,101203.74
2019-06-07T10:53:04.400Z,101196.11
2019-06-07T10:55:31.435Z,101193.69
2019-06-07T10:58:00.306Z,101192.47
2019-06-07T11:00:28.988Z,101189.58
2019-06-07T11:02:56.070Z,101199.83
2019-06-07T11:05:23.165Z,101200.70
2019-06-07T11:07:50.302Z,101188.56
2019-06-07T11:10:20.030Z,101179.50
2019-06-07T11:12:46.652Z,101186.00
2019-06-07T11:15:15.583Z,101186.01
2019-06-07T11:17:42.655Z,101189.58
2019-06-07T11:20:12.440Z,101185.14
2019-06-07T11:22:39.618Z,101174.05
2019-06-07T11:25:09.223Z,101182.42
2019-06-07T11:27:38.550Z,101171.31
2019-06-07T11:30:06.287Z,101167.03
2019-06-07T11:32:33.505Z,101178.66
2019-06-07T11:35:02.292Z,101175.89
2019-06-07T11:37:29.358Z,101173.68
2019-06-07T11:39:56.463Z,101179.98
2019-06-07T11:42:23.557Z,101180.66
2019-06-07T11:44:56.961Z,101173.16
2019-06-07T11:47:19.939Z,101177.23
2019-06-07T11:49:47.059Z,101171.70
2019-06-07T11:52:17.830Z,101164.80
2019-06-07T11:54:48.084Z,101165.66
2019-06-07T11:57:15.144Z,101169.09
2019-06-07T11:59:42.286Z,101172.70
2019-06-07T12:02:09.354Z,101174.07
2019-06-07T12:04:36.439Z,101163.29
2019-06-07T12:07:03.553Z,101171.36
2019-06-07T12:09:30.691Z,101172.45
2019-06-07T12:11:57.765Z,101164.59
2019-06-07T12:14:24.848Z,101167.97
2019-06-07T12:16:51.941Z,101152.88
2019-06-07T12:19:19.804Z,101148.73
2019-06-07T12:21:46.987Z,101143.39
2019-06-07T12:24:16.214Z,101147.14
2019-06-07T12:26:43.476Z,101142.40
2019-06-07T12:29:10.761Z,101150.16
2019-06-07T12:31:37.907Z,101147.66
2019-06-07T12:34:04.991Z,101140.83
2019-06-07T12:36:32.078Z,101136.39
2019-06-07T12:38:59.147Z,101144.45
2019-06-07T12:41:26.222Z,101140.03
2019-06-07T12:43:53.345Z,101135.95
2019-06-07T12:46:26.064Z,101136.58
2019-06-07T12:48:49.510Z,101134.67
2019-06-07T12:51:17.225Z,101133.13
2019-06-07T12:53:44.422Z,101136.88
2019-06-07T12:56:11.505Z,101129.84
2019-06-07T12:58:39.536Z,101123.55
2019-06-07T13:01:06.862Z,101123.12
2019-06-07T13:03:33.934Z,101125.82
2019-06-07T13:06:03.000Z,101122.15
2019-06-07T13:08:30.149Z,101123.77
2019-06-07T13:11:13.620Z,101104.19
2019-06-07T13:13:26.271Z,101110.19
2019-06-07T13:15:53.372Z,101105.09
2019-06-07T13:18:21.743Z,101103.14
2019-06-07T13:20:49.415Z,101102.88
2019-06-07T13:23:16.487Z,101096.63
2019-06-07T13:25:46.563Z,101101.75
2019-06-07T13:28:12.539Z,101095.43
2019-06-07T13:30:39.603Z,101096.94
2019-06-07T13:33:06.685Z,101099.73
2019-06-07T13:35:33.767Z,101088.51
2019-06-07T13:38:00.836Z,101093.02
2019-06-07T13:40:28.679Z,101100.14
2019-06-07T13:42:55.886Z,101093.92
2019-06-07T13:45:24.307Z,101096.11
2019-06-07T13:47:51.834Z,101102.76
2019-06-07T13:50:19.671Z,101107.13
2019-06-07T13:52:48.389Z,101107.77
2019-06-07T13:55:15.848Z,101092.45
2019-06-07T13:57:42.910Z,101102.45
2019-06-07T14:00:11.471Z,101102.58
2019-06-07T14:02:38.778Z,101100.50
2019-06-07T14:05:06.560Z,101108.48
2019-06-07T14:07:33.840Z,101108.41
2019-06-07T14:10:00.909Z,101105.03
2019-06-07T14:12:27.983Z,101111.23
2019-06-07T14:14:55.053Z,101113.19
2019-06-07T14:17:23.240Z,101111.03
2019-06-07T14:19:50.429Z,101108.78
2019-06-07T14:22:17.507Z,101105.52
2019-06-07T14:24:44.581Z,101110.57
2019-06-07T14:27:11.687Z,101105.67
2019-06-07T14:29:39.155Z,101111.27
2019-06-07T14:32:06.738Z,101108.50
2019-06-07T14:34:34.120Z,101115.15
2019-06-07T14:37:01.344Z,101104.87
2019-06-07T14:39:29.476Z,101110.84
2019-06-07T14:42:08.534Z,101106.66
2019-06-07T14:44:27.699Z,101106.55
2019-06-07T14:46:54.874Z,101108.83
2019-06-07T14:49:22.014Z,101112.16
2019-06-07T14:51:49.091Z,101103.73
2019-06-07T14:54:16.170Z,101103.87
2019-06-07T14:56:43.333Z,101104.72
2019-06-07T14:59:10.458Z,101109.47
2019-06-07T15:01:37.526Z,101120.19
2019-06-07T15:04:04.824Z,101118.98
2019-06-07T15:06:32.781Z,101111.58
2019-06-07T15:08:59.977Z,101117.57
2019-06-07T15:11:27.103Z,101116.14
2019-06-07T15:13:54.177Z,101116.52
2019-06-07T15:16:21.259Z,101113.21
2019-06-07T15:18:48.351Z,101105.59
2019-06-07T15:21:15.414Z,101109.12
2019-06-07T15:23:42.479Z,101117.45
2019-06-07T15:26:09.551Z,101104.09
2019-06-07T15:28:38.494Z,101109.66
2019-06-07T15:31:05.562Z,101119.95
2019-06-07T15:33:34.241Z,101106.86
2019-06-07T15:36:01.505Z,101108.71
2019-06-07T15:38:29.191Z,101112.09
2019-06-07T15:40:56.381Z,101115.10
2019-06-07T15:43:23.568Z,101112.08
2019-06-07T15:45:58.260Z,101119.88
2019-06-07T15:48:25.324Z,101122.30
2019-06-07T15:50:52.400Z,101116.56
2019-06-07T15:53:19.490Z,101129.67
2019-06-07T15:55:46.582Z,101125.61
2019-06-07T15:58:13.662Z,101132.14
2019-06-07T16:00:42.480Z,101126.70
2019-06-07T16:03:09.726Z,101125.39
2019-06-07T16:05:36.803Z,101134.52
2019-06-07T16:08:04.379Z,101134.63
2019-06-07T16:10:32.615Z,101126.07
2019-06-07T16:13:00.955Z,101133.03
2019-06-07T16:15:28.233Z,101135.95
2019-06-07T16:17:55.320Z,101139.34
2019-06-07T16:20:22.431Z,101130.54
2019-06-07T16:22:49.551Z,101133.41
2019-06-07T16:25:18.623Z,101124.02
2019-06-07T16:27:45.725Z,101126.17
2019-06-07T16:30:13.696Z,101133.24
2019-06-07T16:32:41.822Z,101128.87
2019-06-07T16:35:11.463Z,101132.50
2019-06-07T16:37:38.749Z,101127.89
2019-06-07T16:40:06.201Z,101131.81
2019-06-07T16:42:33.279Z,101126.62
2019-06-07T16:45:00.359Z,101128.48
2019-06-07T16:47:28.536Z,101126.84
2019-06-07T16:49:55.617Z,101125.58
2019-06-07T16:52:22.690Z,101136.59
2019-06-07T16:54:49.779Z,101134.98
2019-06-07T16:57:16.859Z,101130.25
2019-06-07T16:59:48.609Z,101137.76
2019-06-07T17:02:12.939Z,101135.80
2019-06-07T17:04:40.009Z,101142.34
2019-06-07T17:07:07.101Z,101142.73
2019-06-07T17:09:34.177Z,101155.44
2019-06-07T17:12:01.250Z,101147.05
2019-06-07T17:14:28.327Z,101150.94
2019-06-07T17:16:55.405Z,101156.33
2019-06-07T17:19:22.487Z,101154.33
2019-06-07T17:21:49.670Z,101153.15
2019-06-07T17:24:16.862Z,101146.06
2019-06-07T17:26:43.949Z,101152.22
2019-06-07T17:29:11.024Z,101148.13
2019-06-07T17:31:38.102Z,101146.95
2019-06-07T17:34:05.178Z,101146.43
2019-06-07T17:36:32.266Z,101146.91
2019-06-07T17:38:59.339Z,101149.83
2019-06-07T17:41:26.456Z,101145.63
2019-06-07T17:43:59.989Z,101141.56
2019-06-07T17:46:22.527Z,101146.69
2019-06-07T17:48:49.793Z,101150.23
2019-06-07T17:51:16.877Z,101143.70
2019-06-07T17:53:43.974Z,101141.25
2019-06-07T17:56:11.039Z,101144.95
2019-06-07T17:58:38.098Z,101147.69
2019-06-07T18:01:05.184Z,101151.13
2019-06-07T18:03:32.245Z,101150.73
2019-06-07T18:06:01.553Z,101148.33
2019-06-07T18:08:29.231Z,101150.40
2019-06-07T18:10:56.308Z,101162.30
2019-06-07T18:13:23.411Z,101166.05
2019-06-07T18:15:53.982Z,101154.86
2019-06-07T18:18:19.491Z,101154.23
2019-06-07T18:20:47.192Z,101161.58
2019-06-07T18:23:14.642Z,101159.29
2019-06-07T18:25:41.918Z,101162.72
2019-06-07T18:28:08.993Z,101167.59
2019-06-07T18:30:36.258Z,101167.82
2019-06-07T18:33:03.493Z,101176.01
2019-06-07T18:35:30.600Z,101172.44
2019-06-07T18:37:57.691Z,101177.86
2019-06-07T18:40:24.787Z,101175.09
2019-06-07T18:42:52.982Z,101182.13
2019-06-07T18:45:20.375Z,101188.45
2019-06-07T18:47:49.456Z,101198.99
2019-06-07T18:50:16.890Z,101191.95
2019-06-07T18:52:46.572Z,101185.55
2019-06-07T18:55:14.684Z,101193.91
2019-06-07T18:57:41.766Z,101183.61
2019-06-07T19:00:10.335Z,101192.40
2019-06-07T19:02:37.452Z,101191.38
2019-06-07T19:05:05.381Z,101190.06
2019-06-07T19:07:32.474Z,101187.91
2019-06-07T19:09:59.572Z,101191.67
2019-06-07T19:12:26.627Z,101185.29
2019-06-07T19:14:53.717Z,101188.08
2019-06-07T19:17:20.795Z,101184.28
2019-06-07T19:19:47.900Z,101181.28
2019-06-07T19:22:14.988Z,101177.87
2019-06-07T19:24:42.062Z,101184.32
2019-06-07T19:27:09.140Z,101179.98
2019-06-07T19:29:36.236Z,101189.67
2019-06-07T19:32:03.373Z,101190.95
2019-06-07T19:34:30.424Z,101195.55
2019-06-07T19:36:57.820Z,101194.86
2019-06-07T19:39:26.123Z,101194.61
2019-06-07T19:41:54.205Z,101186.89
2019-06-07T19:44:21.283Z,101194.28
2019-06-07T19:46:48.367Z,101183.11
2019-06-07T19:49:15.473Z,101185.11
2019-06-07T19:51:42.571Z,101187.72
2019-06-07T19:54:09.662Z,101198.80
2019-06-07T19:56:36.748Z,101191.05
2019-06-07T19:59:04.286Z,101200.66
2019-06-07T20:01:31.517Z,101204.87
2019-06-07T20:03:59.947Z,101202.30
2019-06-07T20:06:27.083Z,101206.00
2019-06-07T20:08:54.367Z,101206.86
2019-06-07T20:11:22.655Z,101217.06
2019-06-07T20:13:49.747Z,101227.66
2019-06-07T20:16:16.892Z,101231.09
2019-06-07T20:18:44.005Z,101232.93
2019-06-07T20:21:11.112Z,101227.65
2019-06-07T20:23:38.235Z,101228.62
2019-06-07T20:26:06.707Z,101220.89
2019-06-07T20:28:33.923Z,101220.04
2019-06-07T20:31:01.972Z,101221.86
2019-06-07T20:33:29.124Z,101226.78
2019-06-07T20:35:56.602Z,101230.56
2019-06-07T20:38:23.799Z,101232.95
2019-06-07T20:40:50.885Z,101236.14
2019-06-07T20:43:17.979Z,101238.59
2019-06-07T20:45:45.210Z,101239.55
2019-06-07T20:48:12.294Z,101242.71
2019-06-07T20:50:39.379Z,101255.45
2019-06-07T20:53:07.190Z,101244.25
2019-06-07T20:55:34.444Z,101245.34
2019-06-07T20:58:03.567Z,101240.17
2019-06-07T21:00:30.521Z,101238.45
2019-06-07T21:02:58.872Z,101249.84
2019-06-07T21:05:26.117Z,101255.70
2019-06-07T21:07:53.204Z,101248.45
2019-06-07T21:10:22.317Z,101244.77
2019-06-07T21:12:49.396Z,101244.49
2019-06-07T21:15:16.481Z,101244.32
2019-06-07T21:17:43.578Z,101240.50
2019-06-07T21:20:14.231Z,101241.84
2019-06-07T21:22:39.656Z,101239.73
2019-06-07T21:25:09.251Z,101245.85
2019-06-07T21:27:36.749Z,101243.51
2019-06-07T21:30:05.169Z,101244.22
2019-06-07T21:32:32.241Z,101239.91
2019-06-07T21:35:01.775Z,101235.59
2019-06-07T21:37:29.000Z,101229.07
2019-06-07T21:39:56.086Z,101225.96
2019-06-07T21:42:23.235Z,101224.33
2019-06-07T21:44:50.307Z,101230.06
2019-06-07T21:47:17.392Z,101230.37
2019-06-07T21:49:44.467Z,101231.58
2019-06-07T21:52:12.665Z,101231.80
2019-06-07T21:54:40.154Z,101217.81
2019-06-07T21:57:07.215Z,101224.15
2019-06-07T21:59:34.283Z,101224.98
2019-06-07T22:02:01.369Z,101232.16
2019-06-07T22:04:28.447Z,101235.92
2019-06-07T22:06:55.534Z,101229.41
2019-06-07T22:09:22.623Z,101233.20
2019-06-07T22:11:49.707Z,101228.84
2019-06-07T22:14:16.800Z,101225.30
2019-06-07T22:16:43.881Z,101228.58
2019-06-07T22:19:10.959Z,101231.48
2019-06-07T22:21:38.034Z,101229.62
2019-06-07T22:24:05.111Z,101236.08
2019-06-07T22:26:32.238Z,101229.83
2019-06-07T22:28:59.309Z,101235.92
2019-06-07T22:31:26.393Z,101230.87
2019-06-07T22:33:53.470Z,101227.62
2019-06-07T22:36:20.557Z,101238.97
2019-06-07T22:38:47.642Z,101236.89
2019-06-07T22:41:15.931Z,101236.89
2019-06-07T22:43:43.226Z,101230.16
2019-06-07T22:46:13.000Z,101227.55
2019-06-07T22:48:40.143Z,101222.86
2019-06-07T22:51:09.409Z,101223.56
2019-06-07T22:53:43.690Z,101225.40
2019-06-07T22:56:34.828Z,101230.30
2019-06-07T22:59:02.108Z,101225.03
2019-06-07T23:01:29.187Z,101226.37
2019-06-07T23:03:56.277Z,101228.79
2019-06-07T23:06:23.365Z,101226.22
2019-06-07T23:08:50.441Z,101233.89
2019-06-07T23:11:17.519Z,101224.67
2019-06-07T23:13:44.619Z,101222.23
2019-06-07T23:16:11.708Z,101231.86
2019-06-07T23:18:38.799Z,101234.16
2019-06-07T23:21:05.875Z,101235.33
2019-06-07T23:23:34.054Z,101231.91
2019-06-07T23:26:01.134Z,101233.45
2019-06-07T23:28:28.211Z,101230.20
2019-06-07T23:30:55.300Z,101224.45
2019-06-07T23:33:23.486Z,101216.95
2019-06-07T23:35:50.569Z,101214.86
2019-06-07T23:38:17.649Z,101215.76
2019-06-07T23:40:44.715Z,101211.24
2019-06-07T23:43:13.364Z,101208.95
2019-06-07T23:45:40.582Z,101204.19
2019-06-07T23:48:07.653Z,101210.86
2019-06-07T23:50:34.742Z,101207.40
2019-06-07T23:53:01.807Z,101224.52
2019-06-07T23:55:28.884Z,101214.03
2019-06-07T23:57:55.955Z,101215.50
